createdAt,value
2022-08-25T00:00:22.835Z,31.90
2022-08-25T00:03:06.378Z,32.20
2022-08-25T00:05:35.474Z,32.50
2022-08-25T00:08:06.726Z,32.30
2022-08-25T00:10:38.639Z,32.20
2022-08-25T00:13:07.867Z,32.20
2022-08-25T00:15:38.406Z,32.30
2022-08-25T00:18:14.792Z,32.40
2022-08-25T00:20:49.301Z,32.60
2022-08-25T00:23:20.099Z,32.50
2022-08-25T00:25:49.085Z,32.40
2022-08-25T00:28:18.741Z,32.30
2022-08-25T00:30:47.310Z,32.20
2022-08-25T00:33:16.409Z,32.30
2022-08-25T00:35:46.377Z,31.90
2022-08-25T00:38:16.654Z,31.60
2022-08-25T00:41:05.726Z,31.60
2022-08-25T00:43:46.707Z,31.10
2022-08-25T00:46:18.979Z,31.40
2022-08-25T00:48:53.350Z,31.60
2022-08-25T00:51:33.985Z,31.90
2022-08-25T00:54:03.811Z,31.90
2022-08-25T00:56:35.373Z,32.00
2022-08-25T00:59:06.267Z,32.10
2022-08-25T01:01:36.146Z,32.20
2022-08-25T01:04:05.371Z,32.10
2022-08-25T01:06:38.920Z,32.10
2022-08-25T01:09:08.865Z,32.20
2022-08-25T01:11:39.107Z,32.30
2022-08-25T01:14:10.653Z,31.70
2022-08-25T01:16:41.475Z,31.60
2022-08-25T01:19:15.397Z,31.10
2022-08-25T01:21:50.403Z,31.30
2022-08-25T01:24:31.470Z,31.40
2022-08-25T01:27:01.423Z,31.70
2022-08-25T01:29:31.354Z,31.90
2022-08-25T01:32:04.835Z,31.50
2022-08-25T01:34:38.679Z,31.70
2022-08-25T01:37:12.060Z,31.90
2022-08-25T01:39:44.420Z,32.10
2022-08-25T01:42:39.584Z,32.20
2022-08-25T01:45:10.787Z,32.20
2022-08-25T01:47:39.708Z,32.40
2022-08-25T01:50:09.613Z,32.20
2022-08-25T01:52:51.336Z,32.40
2022-08-25T01:55:20.534Z,32.60
2022-08-25T01:57:49.415Z,32.70
2022-08-25T02:00:20.303Z,32.80
2022-08-25T02:02:52.329Z,32.80
2022-08-25T02:05:24.212Z,32.70
2022-08-25T02:07:54.792Z,32.80
2022-08-25T02:10:24.057Z,32.90
2022-08-25T02:12:54.318Z,33.00
2022-08-25T02:15:23.658Z,33.00
2022-08-25T02:17:52.800Z,33.10
2022-08-25T02:20:21.377Z,33.20
2022-08-25T02:22:56.624Z,33.50
2022-08-25T02:25:27.173Z,33.50
2022-08-25T02:27:56.106Z,33.60
2022-08-25T02:30:24.873Z,33.60
2022-08-25T02:32:53.577Z,33.70
2022-08-25T02:35:22.999Z,33.70
2022-08-25T02:37:53.490Z,33.80
2022-08-25T02:40:24.043Z,33.80
2022-08-25T02:42:55.540Z,33.80
2022-08-25T02:45:24.659Z,33.80
2022-08-25T02:47:53.646Z,33.80
2022-08-25T02:50:22.461Z,33.80
2022-08-25T02:52:52.019Z,33.80
2022-08-25T02:55:20.947Z,33.80
2022-08-25T02:57:49.563Z,33.90
2022-08-25T03:00:21.085Z,33.90
2022-08-25T03:02:51.887Z,33.90
2022-08-25T03:05:20.665Z,33.90
2022-08-25T03:07:49.269Z,33.90
2022-08-25T03:10:19.795Z,33.80
2022-08-25T03:12:48.890Z,33.90
2022-08-25T03:15:20.142Z,33.90
2022-08-25T03:17:50.636Z,33.90
2022-08-25T03:20:20.401Z,33.90
2022-08-25T03:22:49.478Z,34.00
2022-08-25T03:25:36.832Z,34.00
2022-08-25T03:28:08.049Z,34.00
2022-08-25T03:30:38.345Z,34.00
2022-08-25T03:33:07.150Z,34.00
2022-08-25T03:35:35.805Z,34.00
2022-08-25T03:38:05.011Z,34.00
2022-08-25T03:40:33.957Z,34.00
2022-08-25T03:43:02.673Z,34.00
2022-08-25T03:45:31.785Z,34.00
2022-08-25T03:48:02.129Z,34.00
2022-08-25T03:50:31.225Z,33.90
2022-08-25T03:52:59.981Z,33.90
2022-08-25T03:55:29.345Z,33.90
2022-08-25T03:58:01.402Z,33.90
2022-08-25T04:00:30.446Z,34.00
2022-08-25T04:02:59.057Z,34.00
2022-08-25T04:05:29.193Z,34.00
2022-08-25T04:07:57.922Z,34.00
2022-08-25T04:10:26.720Z,34.00
2022-08-25T04:12:56.099Z,34.00
2022-08-25T04:15:30.075Z,34.00
2022-08-25T04:17:59.325Z,34.00
2022-08-25T04:20:29.277Z,34.10
2022-08-25T04:23:00.664Z,34.20
2022-08-25T04:25:29.690Z,34.20
2022-08-25T04:27:58.491Z,34.20
2022-08-25T04:30:27.104Z,34.20
2022-08-25T04:32:55.941Z,34.20
2022-08-25T04:35:25.227Z,34.30
2022-08-25T04:37:55.209Z,34.30
2022-08-25T04:40:29.001Z,34.30
2022-08-25T04:42:57.856Z,34.40
2022-08-25T04:45:26.812Z,34.40
2022-08-25T04:47:58.111Z,34.50
2022-08-25T04:50:26.684Z,34.50
2022-08-25T04:52:56.895Z,34.50
2022-08-25T04:55:25.446Z,34.60
2022-08-25T04:57:54.059Z,34.60
2022-08-25T05:00:23.060Z,34.70
2022-08-25T05:02:51.653Z,34.70
2022-08-25T05:05:20.327Z,34.80
2022-08-25T05:07:49.075Z,34.80
2022-08-25T05:10:20.258Z,34.80
2022-08-25T05:12:49.231Z,34.80
2022-08-25T05:15:35.739Z,35.00
2022-08-25T05:18:04.401Z,35.00
2022-08-25T05:20:33.715Z,34.90
2022-08-25T05:23:02.251Z,34.90
2022-08-25T05:25:33.225Z,35.00
2022-08-25T05:28:02.370Z,35.10
2022-08-25T05:30:30.972Z,35.10
2022-08-25T05:32:59.534Z,35.20
2022-08-25T05:35:28.374Z,35.30
2022-08-25T05:37:57.459Z,35.40
2022-08-25T05:40:26.352Z,35.50
2022-08-25T05:42:56.837Z,35.50
2022-08-25T05:45:26.368Z,35.40
2022-08-25T05:47:54.960Z,35.60
2022-08-25T05:50:23.692Z,35.60
2022-08-25T05:52:52.325Z,35.70
2022-08-25T05:55:21.650Z,35.70
2022-08-25T05:57:50.602Z,35.80
2022-08-25T06:00:20.995Z,35.90
2022-08-25T06:02:49.728Z,35.90
2022-08-25T06:05:22.217Z,35.90
2022-08-25T06:07:53.631Z,36.00
2022-08-25T06:10:23.094Z,36.00
2022-08-25T06:12:51.712Z,36.10
2022-08-25T06:15:26.102Z,36.10
2022-08-25T06:18:00.998Z,36.10
2022-08-25T06:20:33.210Z,36.10
2022-08-25T06:23:02.075Z,36.10
2022-08-25T06:25:33.592Z,36.00
2022-08-25T06:28:02.251Z,36.00
2022-08-25T06:30:32.699Z,36.00
2022-08-25T06:33:01.256Z,36.00
2022-08-25T06:35:29.880Z,36.00
2022-08-25T06:37:58.648Z,36.10
2022-08-25T06:40:28.922Z,36.10
2022-08-25T06:42:57.606Z,36.20
2022-08-25T06:45:26.394Z,36.30
2022-08-25T06:47:59.546Z,36.30
2022-08-25T06:50:28.529Z,36.40
2022-08-25T06:52:57.114Z,36.40
2022-08-25T06:55:25.707Z,36.50
2022-08-25T06:57:55.121Z,36.60
2022-08-25T07:00:30.512Z,36.70
2022-08-25T07:03:01.879Z,36.80
2022-08-25T07:05:43.464Z,37.00
2022-08-25T07:08:12.906Z,37.10
2022-08-25T07:10:41.474Z,37.20
2022-08-25T07:13:17.512Z,37.20
2022-08-25T07:15:46.343Z,37.30
2022-08-25T07:18:16.346Z,37.50
2022-08-25T07:20:45.157Z,37.60
2022-08-25T07:23:13.806Z,37.80
2022-08-25T07:25:42.405Z,37.80
2022-08-25T07:28:11.201Z,37.80
2022-08-25T07:30:39.893Z,37.90
2022-08-25T07:33:08.898Z,38.00
2022-08-25T07:35:39.185Z,38.00
2022-08-25T07:38:13.073Z,38.10
2022-08-25T07:40:53.336Z,38.20
2022-08-25T07:43:23.165Z,38.30
2022-08-25T07:45:51.943Z,38.30
2022-08-25T07:48:20.734Z,38.30
2022-08-25T07:50:50.935Z,38.40
2022-08-25T07:53:20.085Z,38.30
2022-08-25T07:55:48.786Z,38.30
2022-08-25T07:58:18.312Z,37.70
2022-08-25T08:00:50.759Z,37.80
2022-08-25T08:03:42.310Z,38.20
2022-08-25T08:06:12.768Z,38.90
2022-08-25T08:08:45.407Z,39.20
2022-08-25T08:11:18.145Z,39.90
2022-08-25T08:13:48.768Z,40.70
2022-08-25T08:16:22.123Z,41.40
2022-08-25T08:18:51.197Z,41.70
2022-08-25T08:21:26.202Z,42.40
2022-08-25T08:23:59.179Z,42.20
2022-08-25T08:26:48.343Z,42.60
2022-08-25T08:29:20.197Z,42.90
2022-08-25T08:31:51.611Z,41.90
2022-08-25T08:34:24.935Z,41.80
2022-08-25T08:36:55.180Z,42.00
2022-08-25T08:39:24.539Z,41.90
2022-08-25T08:42:18.125Z,42.40
2022-08-25T08:45:27.197Z,43.20
2022-08-25T08:48:41.508Z,44.10
2022-08-25T08:51:24.591Z,44.80
2022-08-25T08:54:01.054Z,45.70
2022-08-25T08:56:36.444Z,45.80
2022-08-25T08:59:13.103Z,45.30
2022-08-25T09:01:54.420Z,44.90
2022-08-25T09:04:33.226Z,45.30
2022-08-25T09:07:11.731Z,45.20
2022-08-25T09:09:44.376Z,44.70
2022-08-25T09:12:33.585Z,43.90
2022-08-25T09:15:17.548Z,43.80
2022-08-25T09:18:12.107Z,43.10
2022-08-25T09:20:59.758Z,43.30
2022-08-25T09:23:54.484Z,44.30
2022-08-25T09:26:37.147Z,45.30
2022-08-25T09:29:16.555Z,46.10
2022-08-25T09:31:48.661Z,46.90
2022-08-25T09:34:22.160Z,47.60
2022-08-25T09:36:53.486Z,48.20
2022-08-25T09:39:23.400Z,48.70
2022-08-25T09:41:57.295Z,49.20
2022-08-25T09:44:33.106Z,49.80
2022-08-25T09:47:08.267Z,50.20
2022-08-25T09:49:41.802Z,50.60
2022-08-25T09:52:35.807Z,50.80
2022-08-25T09:55:34.324Z,50.80
2022-08-25T09:58:20.591Z,51.10
2022-08-25T10:01:05.842Z,51.30
2022-08-25T10:03:36.781Z,51.10
2022-08-25T10:06:13.643Z,51.10
2022-08-25T10:08:57.708Z,51.30
2022-08-25T10:11:48.962Z,51.50
2022-08-25T10:14:30.133Z,51.60
2022-08-25T10:17:24.746Z,51.80
2022-08-25T10:20:15.314Z,52.00
2022-08-25T10:22:48.312Z,52.20
2022-08-25T10:25:30.847Z,52.40
2022-08-25T10:28:13.435Z,52.60
2022-08-25T10:31:00.464Z,52.70
2022-08-25T10:33:45.313Z,52.50
2022-08-25T10:36:22.823Z,52.10
2022-08-25T10:38:58.069Z,51.60
2022-08-25T10:41:53.517Z,50.90
2022-08-25T10:44:52.669Z,50.40
2022-08-25T10:47:57.173Z,49.90
2022-08-25T10:50:34.673Z,49.30
2022-08-25T10:53:24.151Z,48.80
2022-08-25T10:56:07.342Z,48.30
2022-08-25T10:59:01.760Z,47.70
2022-08-25T11:01:53.446Z,47.20
2022-08-25T11:04:33.916Z,46.90
2022-08-25T11:07:13.165Z,46.60
2022-08-25T11:09:46.077Z,46.40
2022-08-25T11:12:31.069Z,46.20
2022-08-25T11:15:08.522Z,46.10
2022-08-25T11:17:50.298Z,45.90
2022-08-25T11:20:28.664Z,45.80
2022-08-25T11:23:12.437Z,45.60
2022-08-25T11:25:46.077Z,45.50
2022-08-25T11:28:23.157Z,45.40
2022-08-25T11:30:54.501Z,45.20
2022-08-25T11:33:26.766Z,45.00
2022-08-25T11:36:04.821Z,44.90
2022-08-25T11:38:55.439Z,44.80
2022-08-25T11:41:39.385Z,44.70
2022-08-25T11:44:53.081Z,44.40
2022-08-25T11:47:51.393Z,44.20
2022-08-25T11:50:32.761Z,44.20
2022-08-25T11:53:26.900Z,44.00
2022-08-25T11:56:04.391Z,43.80
2022-08-25T11:58:42.724Z,43.60
2022-08-25T12:01:52.701Z,43.40
2022-08-25T12:04:45.197Z,43.20
2022-08-25T12:07:29.592Z,43.10
2022-08-25T12:10:22.628Z,42.80
2022-08-25T12:13:22.023Z,42.70
2022-08-25T12:16:02.412Z,42.50
2022-08-25T12:18:46.450Z,42.40
2022-08-25T12:21:31.297Z,42.30
2022-08-25T12:24:23.212Z,42.20
2022-08-25T12:27:00.943Z,42.00
2022-08-25T12:29:41.661Z,42.00
2022-08-25T12:32:58.924Z,42.00
2022-08-25T12:35:32.144Z,41.90
2022-08-25T12:38:10.433Z,41.80
2022-08-25T12:40:59.416Z,41.70
2022-08-25T12:43:33.263Z,41.70
2022-08-25T12:46:40.112Z,41.70
2022-08-25T12:49:31.753Z,41.80
2022-08-25T12:52:08.146Z,41.60
2022-08-25T12:54:50.167Z,41.70
2022-08-25T12:57:41.972Z,41.60
2022-08-25T13:00:23.606Z,41.60
2022-08-25T13:03:26.028Z,41.50
2022-08-25T13:06:23.164Z,41.50
2022-08-25T13:09:47.956Z,41.30
2022-08-25T13:12:25.331Z,41.20
2022-08-25T13:14:57.311Z,41.30
2022-08-25T13:17:29.048Z,41.20
2022-08-25T13:20:19.648Z,41.10
2022-08-25T13:22:56.684Z,41.10
2022-08-25T13:25:33.216Z,41.10
2022-08-25T13:28:06.727Z,41.00
2022-08-25T13:30:40.219Z,40.90
2022-08-25T13:33:22.135Z,40.90
2022-08-25T13:36:15.055Z,41.00
2022-08-25T13:38:45.888Z,41.00
2022-08-25T13:41:29.214Z,40.90
2022-08-25T13:44:01.067Z,41.00
2022-08-25T13:46:32.024Z,41.00
2022-08-25T13:49:09.005Z,41.10
2022-08-25T13:51:51.377Z,41.20
2022-08-25T13:54:29.666Z,41.30
2022-08-25T13:57:12.958Z,41.50
2022-08-25T13:59:46.474Z,41.70
2022-08-25T14:02:42.599Z,41.70
2022-08-25T14:05:17.432Z,41.80
2022-08-25T14:08:15.604Z,42.00
2022-08-25T14:10:46.317Z,42.10
2022-08-25T14:13:31.974Z,42.20
2022-08-25T14:16:11.418Z,42.30
2022-08-25T14:18:40.648Z,42.20
2022-08-25T14:21:12.536Z,42.30
2022-08-25T14:23:41.733Z,42.20
2022-08-25T14:26:10.304Z,42.10
2022-08-25T14:28:40.952Z,42.00
2022-08-25T14:31:15.248Z,41.80
2022-08-25T14:33:55.141Z,41.70
2022-08-25T14:36:24.399Z,41.60
2022-08-25T14:38:55.059Z,41.50
2022-08-25T14:41:25.822Z,41.30
2022-08-25T14:43:56.056Z,41.20
2022-08-25T14:46:30.376Z,41.20
2022-08-25T14:49:02.691Z,41.10
2022-08-25T14:51:33.595Z,41.10
2022-08-25T14:54:09.268Z,41.10
2022-08-25T14:56:37.912Z,41.10
2022-08-25T14:59:13.503Z,41.10
2022-08-25T15:01:42.980Z,41.10
2022-08-25T15:04:18.021Z,41.10
2022-08-25T15:06:55.890Z,41.10
2022-08-25T15:09:24.552Z,41.10
2022-08-25T15:11:57.146Z,41.10
2022-08-25T15:14:28.928Z,41.10
2022-08-25T15:17:03.984Z,41.00
2022-08-25T15:19:32.762Z,40.90
2022-08-25T15:22:01.715Z,40.90
2022-08-25T15:24:32.208Z,40.80
2022-08-25T15:27:10.038Z,40.80
2022-08-25T15:29:41.036Z,40.70
2022-08-25T15:32:10.356Z,40.60
2022-08-25T15:34:51.668Z,40.60
2022-08-25T15:37:20.432Z,40.70
2022-08-25T15:39:49.612Z,40.60
2022-08-25T15:42:18.571Z,40.60
2022-08-25T15:44:53.197Z,40.60
2022-08-25T15:47:24.152Z,40.60
2022-08-25T15:50:06.444Z,40.60
2022-08-25T15:52:46.576Z,40.50
2022-08-25T15:55:18.362Z,40.50
2022-08-25T15:57:49.614Z,40.50
2022-08-25T16:00:21.515Z,40.50
2022-08-25T16:02:50.738Z,40.40
2022-08-25T16:05:25.762Z,40.40
2022-08-25T16:07:54.562Z,40.30
2022-08-25T16:10:23.968Z,40.20
2022-08-25T16:12:53.790Z,40.20
2022-08-25T16:15:28.760Z,40.30
2022-08-25T16:18:01.239Z,40.30
2022-08-25T16:20:32.192Z,40.30
2022-08-25T16:23:03.073Z,40.30
2022-08-25T16:25:33.285Z,40.20
2022-08-25T16:28:05.472Z,40.20
2022-08-25T16:30:35.457Z,40.20
2022-08-25T16:33:04.050Z,40.10
2022-08-25T16:35:35.162Z,40.20
2022-08-25T16:38:09.196Z,40.10
2022-08-25T16:40:42.544Z,40.10
2022-08-25T16:43:12.143Z,40.10
2022-08-25T16:45:42.077Z,40.10
2022-08-25T16:48:10.867Z,40.00
2022-08-25T16:50:40.399Z,40.00
2022-08-25T16:53:26.785Z,39.90
2022-08-25T16:56:02.695Z,39.90
2022-08-25T16:58:31.645Z,39.80
2022-08-25T17:01:10.142Z,39.80
2022-08-25T17:03:44.030Z,39.80
2022-08-25T17:06:14.253Z,39.70
2022-08-25T17:08:44.115Z,39.70
2022-08-25T17:11:16.783Z,39.70
2022-08-25T17:13:49.753Z,39.60
2022-08-25T17:16:28.013Z,39.60
2022-08-25T17:18:58.427Z,39.40
2022-08-25T17:21:28.665Z,39.40
2022-08-25T17:23:59.493Z,39.30
2022-08-25T17:26:30.500Z,39.20
2022-08-25T17:29:02.169Z,39.10
2022-08-25T17:31:32.516Z,39.10
2022-08-25T17:34:03.308Z,38.90
2022-08-25T17:36:32.073Z,38.80
2022-08-25T17:39:00.628Z,38.70
2022-08-25T17:41:30.552Z,38.60
2022-08-25T17:43:59.657Z,38.50
2022-08-25T17:46:28.968Z,38.40
2022-08-25T17:48:59.299Z,38.40
2022-08-25T17:51:29.718Z,38.30
2022-08-25T17:54:01.123Z,38.20
2022-08-25T17:56:30.048Z,38.10
2022-08-25T17:58:59.162Z,38.10
2022-08-25T18:01:34.669Z,37.90
2022-08-25T18:04:06.334Z,37.80
2022-08-25T18:06:46.742Z,37.80
2022-08-25T18:09:15.503Z,37.70
2022-08-25T18:11:44.316Z,37.60
2022-08-25T18:14:14.410Z,37.60
2022-08-25T18:16:43.084Z,37.50
2022-08-25T18:19:14.592Z,37.40
2022-08-25T18:21:43.683Z,37.30
2022-08-25T18:24:13.400Z,37.30
2022-08-25T18:26:42.398Z,37.20
2022-08-25T18:29:13.282Z,37.10
2022-08-25T18:31:42.640Z,37.00
2022-08-25T18:34:13.555Z,36.90
2022-08-25T18:36:42.266Z,36.90
2022-08-25T18:39:34.608Z,36.80
2022-08-25T18:42:06.033Z,36.70
2022-08-25T18:44:36.279Z,36.60
2022-08-25T18:47:07.423Z,36.60
2022-08-25T18:49:38.442Z,36.60
2022-08-25T18:52:08.058Z,36.50
2022-08-25T18:54:36.780Z,36.50
2022-08-25T18:57:08.873Z,36.40
2022-08-25T18:59:38.002Z,36.40
2022-08-25T19:02:09.999Z,36.30
2022-08-25T19:04:42.708Z,36.30
2022-08-25T19:07:14.149Z,36.30
2022-08-25T19:09:42.799Z,36.20
2022-08-25T19:12:22.077Z,36.20
2022-08-25T19:14:51.686Z,36.10
2022-08-25T19:17:20.314Z,36.10
2022-08-25T19:19:54.907Z,36.10
2022-08-25T19:22:40.639Z,36.00
2022-08-25T19:25:11.888Z,36.00
2022-08-25T19:27:41.938Z,35.90
2022-08-25T19:30:14.265Z,35.90
2022-08-25T19:32:46.761Z,36.00
2022-08-25T19:35:26.094Z,36.00
2022-08-25T19:37:58.577Z,36.00
2022-08-25T19:40:30.322Z,35.90
2022-08-25T19:42:59.621Z,35.90
2022-08-25T19:45:28.211Z,35.90
2022-08-25T19:47:56.775Z,35.90
2022-08-25T19:50:28.296Z,35.90
2022-08-25T19:52:58.025Z,35.80
2022-08-25T19:55:27.042Z,35.80
2022-08-25T19:57:56.171Z,35.70
2022-08-25T20:00:29.806Z,35.70
2022-08-25T20:03:00.654Z,35.60
2022-08-25T20:05:32.349Z,35.60
2022-08-25T20:08:02.471Z,35.50
2022-08-25T20:10:41.145Z,35.50
2022-08-25T20:13:10.899Z,35.50
2022-08-25T20:15:39.775Z,35.40
2022-08-25T20:18:08.949Z,35.40
2022-08-25T20:20:39.256Z,35.40
2022-08-25T20:23:28.289Z,35.30
2022-08-25T20:25:57.557Z,35.20
2022-08-25T20:28:26.155Z,35.20
2022-08-25T20:30:56.692Z,35.10
2022-08-25T20:33:25.486Z,35.10
2022-08-25T20:35:55.865Z,34.90
2022-08-25T20:38:24.519Z,34.90
2022-08-25T20:40:53.346Z,34.90
2022-08-25T20:43:22.070Z,34.80
2022-08-25T20:45:50.670Z,34.80
2022-08-25T20:48:19.422Z,34.80
2022-08-25T20:50:54.374Z,34.70
2022-08-25T20:53:28.092Z,34.70
2022-08-25T20:55:57.612Z,34.70
2022-08-25T20:58:26.839Z,34.70
2022-08-25T21:00:55.788Z,34.60
2022-08-25T21:03:24.345Z,34.60
2022-08-25T21:05:53.502Z,34.60
2022-08-25T21:08:23.631Z,34.50
2022-08-25T21:10:53.847Z,34.50
2022-08-25T21:13:22.867Z,34.50
2022-08-25T21:15:51.748Z,34.50
2022-08-25T21:18:20.755Z,34.50
2022-08-25T21:20:49.297Z,34.50
2022-08-25T21:23:18.059Z,34.50
2022-08-25T21:25:46.633Z,34.40
2022-08-25T21:28:16.540Z,34.40
2022-08-25T21:30:47.448Z,34.40
2022-08-25T21:33:16.356Z,34.40
2022-08-25T21:35:46.834Z,34.30
2022-08-25T21:38:15.616Z,34.40
2022-08-25T21:40:45.127Z,34.40
2022-08-25T21:43:14.019Z,34.40
2022-08-25T21:45:46.701Z,34.30
2022-08-25T21:48:16.691Z,34.30
2022-08-25T21:50:45.288Z,34.20
2022-08-25T21:53:13.826Z,34.20
2022-08-25T21:55:44.280Z,34.10
2022-08-25T21:58:13.100Z,34.10
2022-08-25T22:00:44.978Z,34.10
2022-08-25T22:03:13.790Z,34.10
2022-08-25T22:05:43.288Z,34.10
2022-08-25T22:08:14.536Z,34.00
2022-08-25T22:10:45.500Z,34.00
2022-08-25T22:13:14.073Z,33.90
2022-08-25T22:15:44.249Z,33.90
2022-08-25T22:18:12.879Z,33.80
2022-08-25T22:20:41.642Z,33.80
2022-08-25T22:23:10.521Z,33.70
2022-08-25T22:25:49.432Z,33.60
2022-08-25T22:28:20.882Z,33.60
2022-08-25T22:30:51.966Z,33.60
2022-08-25T22:33:20.985Z,33.50
2022-08-25T22:35:53.138Z,33.50
2022-08-25T22:38:28.610Z,33.50
2022-08-25T22:41:03.492Z,33.40
2022-08-25T22:43:32.261Z,33.40
2022-08-25T22:46:05.152Z,33.30
2022-08-25T22:48:35.817Z,33.30
2022-08-25T22:51:08.119Z,33.30
2022-08-25T22:53:38.712Z,33.20
2022-08-25T22:56:10.512Z,33.20
2022-08-25T22:58:40.685Z,33.10
2022-08-25T23:01:16.809Z,33.10
2022-08-25T23:03:47.624Z,33.10
2022-08-25T23:06:24.593Z,33.10
2022-08-25T23:08:55.753Z,33.10
2022-08-25T23:11:26.001Z,33.10
2022-08-25T23:14:00.463Z,33.10
2022-08-25T23:16:31.758Z,33.10
2022-08-25T23:19:01.288Z,33.00
2022-08-25T23:21:47.590Z,33.00
2022-08-25T23:24:29.813Z,33.00
2022-08-25T23:27:00.623Z,32.90
2022-08-25T23:29:30.878Z,32.80
2022-08-25T23:32:01.395Z,32.80
2022-08-25T23:34:31.263Z,32.70
2022-08-25T23:37:03.422Z,32.70
2022-08-25T23:39:32.149Z,32.60
2022-08-25T23:42:00.741Z,32.60
2022-08-25T23:44:29.927Z,32.50
2022-08-25T23:46:59.829Z,32.50
2022-08-25T23:49:28.405Z,32.50
2022-08-25T23:51:57.274Z,32.40
2022-08-25T23:54:31.112Z,32.40
2022-08-25T23:57:00.456Z,32.40
2022-08-25T23:59:30.343Z,32.30
